Terminal Aerodrome Forecast
Issued by NWS

Current Version | Previous Version | Graphics & Text | Print | Product List | Glossary On
Versions: 1 2 3 4 5 6 7 8 9 10 11 12 13 14 15 16 17 18 19 20 21 22 23 24 25
850
FTUS41 KRLX 200231 AAA
TAFCKB
TAF AMD
KCKB 200231Z 2001/2024 20003KT P6SM SKC
     FM200900 21007KT P6SM SCT030
     FM201200 21007KT P6SM OVC025
     FM202300 23007KT P6SM OVC015=

USA.gov is the U.S. government's official web portal to all federal, state and local government web resources and services.